createdAt,value
2018-06-22T00:05:56.182Z,48.8
2018-06-22T00:22:42.768Z,48.4
2018-06-22T00:39:29.387Z,48.8
2018-06-22T00:56:16.120Z,48.4
2018-06-22T01:13:02.793Z,48.4
2018-06-22T01:29:49.515Z,48.8
2018-06-22T01:46:36.178Z,48.8
2018-06-22T02:03:22.732Z,48.8
2018-06-22T02:20:08.785Z,49.2
2018-06-22T02:36:55.215Z,49.2
2018-06-22T02:53:41.263Z,49.2
2018-06-22T03:10:27.371Z,49.6
2018-06-22T03:27:13.320Z,50.0
2018-06-22T03:43:59.130Z,50.0
2018-06-22T04:00:44.948Z,50.4
2018-06-22T04:17:30.972Z,50.4
2018-06-22T04:34:17.014Z,50.8
2018-06-22T04:51:02.913Z,51.2
2018-06-22T05:07:48.886Z,50.8
2018-06-22T05:24:34.780Z,51.2
2018-06-22T05:41:20.829Z,52.4
2018-06-22T05:58:07.117Z,53.2
2018-06-22T06:14:53.635Z,53.2
2018-06-22T06:31:40.562Z,53.2
2018-06-22T06:48:27.848Z,53.2
2018-06-22T07:05:15.097Z,53.2
2018-06-22T07:22:02.238Z,53.6
2018-06-22T07:38:49.881Z,53.6
2018-06-22T07:55:37.793Z,53.6
2018-06-22T08:05:42.115Z,52.8
2018-06-22T08:22:29.445Z,52.4
2018-06-22T08:39:15.370Z,52.4
2018-06-22T08:56:02.213Z,52.4
2018-06-22T09:12:49.258Z,52.0
2018-06-22T09:29:36.272Z,51.6
2018-06-22T09:46:23.536Z,52.4
2018-06-22T10:03:10.792Z,52.4
2018-06-22T10:19:58.545Z,52.0
2018-06-22T10:36:45.991Z,51.6
2018-06-22T10:53:33.532Z,51.6
2018-06-22T11:10:21.053Z,51.2
2018-06-22T11:27:09.505Z,50.8
2018-06-22T11:43:56.288Z,50.0
2018-06-22T11:48:58.349Z,52.0
2018-06-22T12:04:04.296Z,53.2
2018-06-22T12:20:51.372Z,53.6
2018-06-22T12:37:38.248Z,54.4
2018-06-22T12:47:42.439Z,53.6
2018-06-22T13:04:29.748Z,53.2
2018-06-22T13:21:17.139Z,51.6
2018-06-22T13:38:04.529Z,52.0
2018-06-22T13:54:51.700Z,52.4
2018-06-22T14:11:38.915Z,52.4
2018-06-22T14:28:26.078Z,52.4
2018-06-22T14:45:13.393Z,51.2
2018-06-22T15:02:00.769Z,50.4
2018-06-22T15:18:48.454Z,49.6
2018-06-22T15:35:35.989Z,49.2
2018-06-22T15:52:23.635Z,49.2
2018-06-22T16:09:11.277Z,48.8
2018-06-22T16:25:58.742Z,47.6
2018-06-22T16:42:46.174Z,48.0
2018-06-22T16:59:33.667Z,48.4
2018-06-22T17:16:21.071Z,48.4
2018-06-22T17:33:08.335Z,48.0
2018-06-22T17:49:55.756Z,48.0
2018-06-22T18:06:43.183Z,48.0
2018-06-22T18:23:30.108Z,48.4
2018-06-22T18:40:17.238Z,48.8
2018-06-22T18:57:04.266Z,49.6
2018-06-22T19:13:51.327Z,49.6
2018-06-22T19:30:38.410Z,50.8
2018-06-22T19:47:25.527Z,52.4
2018-06-22T20:04:12.488Z,51.6
2018-06-22T20:20:59.449Z,52.0
2018-06-22T20:37:46.980Z,52.4
2018-06-22T20:54:33.664Z,52.4
2018-06-22T21:11:20.807Z,52.8
2018-06-22T21:28:08.430Z,52.4
2018-06-22T21:44:55.583Z,52.8
2018-06-22T22:01:42.377Z,52.8
2018-06-22T22:18:29.098Z,52.8
2018-06-22T22:35:15.937Z,52.8
2018-06-22T22:52:02.765Z,52.8
2018-06-22T23:08:49.477Z,52.8
2018-06-22T23:25:36.228Z,52.8
2018-06-22T23:42:22.919Z,52.8
2018-06-22T23:59:09.616Z,52.8
